Time;durP1;ratioP1;P1;durP2;ratioP2;P2;SDS_P1;SDS_P2;PMS_P1;PMS_P2;Temp;Humidity;BMP_temperature;BMP_pressure;BME280_temperature;BME280_humidity;BME280_pressure;Samples;Min_cycle;Max_cycle;Signal;HPM_P1;HPM_P2
2023/10/30 00:00:08;;;;;;;8.18;1.92;;;;;;;13.41;100.00;98563.88;12189407;19;20002;-81
2023/10/30 00:04:10;;;;;;;5.82;1.13;;;;;;;13.41;100.00;98577.72;12175887;19;20146;-81
2023/10/30 00:08:12;;;;;;;1.58;0.63;;;;;;;13.37;100.00;98620.91;12194586;19;20041;-80
2023/10/30 00:12:14;;;;;;;3.28;1.35;;;;;;;13.37;100.00;98593.25;12187646;19;20019;-81
2023/10/30 00:16:16;;;;;;;2.47;1.05;;;;;;;13.35;100.00;98595.47;12174770;19;20074;-80
2023/10/30 00:20:18;;;;;;;1.48;0.65;;;;;;;13.32;100.00;98600.78;12209850;19;20014;-80
2023/10/30 00:24:23;;;;;;;4.78;1.63;;;;;;;13.29;100.00;98620.75;12217271;19;20124;-80
2023/10/30 00:28:27;;;;;;;3.95;1.13;;;;;;;13.28;100.00;98622.69;12180143;19;20011;-82
2023/10/30 00:32:30;;;;;;;7.70;0.90;;;;;;;13.25;100.00;98612.22;12188327;19;20078;-79
2023/10/30 00:36:32;;;;;;;3.67;1.20;;;;;;;13.19;100.00;98619.72;12194636;19;20030;-81
2023/10/30 00:40:34;;;;;;;2.80;0.75;;;;;;;13.22;100.00;98627.44;12167337;19;20038;-79
2023/10/30 00:44:39;;;;;;;5.07;1.05;;;;;;;13.18;100.00;98620.03;12188285;19;20029;-80
2023/10/30 00:48:45;;;;;;;9.43;1.00;;;;;;;13.22;100.00;98629.38;12183389;19;20017;-81
2023/10/30 00:52:49;;;;;;;4.87;1.00;;;;;;;13.25;100.00;98650.94;12162401;19;20050;-79
2023/10/30 00:56:52;;;;;;;2.28;0.60;;;;;;;13.25;100.00;98658.41;12186019;19;20504;-78
2023/10/30 01:00:54;;;;;;;3.25;0.80;;;;;;;13.20;100.00;98631.59;12177367;19;21166;-80
2023/10/30 01:04:59;;;;;;;6.53;1.33;;;;;;;13.12;100.00;98641.41;12193218;19;19998;-80
2023/10/30 01:09:02;;;;;;;6.20;1.10;;;;;;;13.07;100.00;98638.69;12190701;19;20007;-84
2023/10/30 01:13:04;;;;;;;5.30;1.10;;;;;;;12.99;100.00;98665.03;12166033;19;20014;-82
2023/10/30 01:17:07;;;;;;;4.45;1.42;;;;;;;12.92;100.00;98672.06;12186663;19;20749;-83
2023/10/30 01:21:12;;;;;;;4.32;1.50;;;;;;;12.85;100.00;98652.19;12178868;19;20074;-80
2023/10/30 01:25:14;;;;;;;3.33;0.93;;;;;;;12.82;100.00;98641.72;12163803;19;20068;-85
2023/10/30 01:29:16;;;;;;;2.47;1.23;;;;;;;12.73;100.00;98630.50;12178860;19;20015;-83
2023/10/30 01:33:19;;;;;;;4.40;0.88;;;;;;;12.67;100.00;98620.59;12169571;19;20010;-82
2023/10/30 01:37:21;;;;;;;2.72;1.00;;;;;;;12.74;100.00;98627.44;12156065;19;20030;-84
2023/10/30 01:41:23;;;;;;;6.32;0.95;;;;;;;12.73;100.00;98634.09;12178127;19;20006;-83
2023/10/30 01:45:26;;;;;;;;;;;;;;;12.67;100.00;98623.38;12169539;19;20011;-82
2023/10/30 01:49:29;;;;;;;1.83;0.65;;;;;;;12.71;100.00;98607.88;12150734;19;20535;-83
2023/10/30 01:53:32;;;;;;;4.28;0.90;;;;;;;12.70;100.00;98617.25;12172562;19;20053;-81
2023/10/30 01:57:34;;;;;;;3.03;0.68;;;;;;;12.68;100.00;98594.63;12179379;19;20010;-82
2023/10/30 02:01:38;;;;;;;2.25;0.93;;;;;;;12.67;100.00;98601.25;12151627;19;20462;-81
2023/10/30 02:05:40;;;;;;;3.65;0.77;;;;;;;12.67;100.00;98606.78;12185388;19;20006;-82
2023/10/30 02:09:43;;;;;;;2.55;0.75;;;;;;;12.60;100.00;98607.16;12191764;19;20604;-82
2023/10/30 02:13:54;;;;;;;1.30;1.00;;;;;;;12.63;100.00;98625.91;12170998;19;20006;-81
2023/10/30 02:17:56;;;;;;;4.78;0.77;;;;;;;12.62;100.00;98615.97;12186308;19;20014;-83
2023/10/30 02:22:00;;;;;;;2.85;0.77;;;;;;;12.59;100.00;98591.69;12164832;19;20057;-80
2023/10/30 02:26:03;;;;;;;4.13;0.80;;;;;;;12.55;100.00;98596.13;12189175;19;20005;-82
2023/10/30 02:30:08;;;;;;;2.38;0.73;;;;;;;12.50;100.00;98602.56;12185560;19;20014;-82
2023/10/30 02:34:12;;;;;;;2.55;0.63;;;;;;;12.44;100.00;98628.59;12166764;19;20013;-80
2023/10/30 02:38:14;;;;;;;5.60;0.80;;;;;;;12.41;100.00;98618.13;12188625;19;20070;-82
2023/10/30 02:42:17;;;;;;;;;;;;;;;12.39;100.00;98619.53;12190337;19;20030;-82
2023/10/30 02:46:20;;;;;;;2.30;0.87;;;;;;;12.42;100.00;98624.47;12168879;19;19907;-82
2023/10/30 02:50:21;;;;;;;5.40;1.27;;;;;;;12.39;100.00;98600.19;12197933;19;20011;-82
2023/10/30 02:54:23;;;;;;;6.95;0.77;;;;;;;12.40;100.00;98593.53;12201652;19;20010;-83
2023/10/30 02:58:25;;;;;;;3.08;0.68;;;;;;;12.44;100.00;98583.56;12186013;19;20011;-80
2023/10/30 03:02:32;;;;;;;4.93;1.65;;;;;;;12.47;100.00;98577.44;12202101;19;20006;-82
2023/10/30 03:06:33;;;;;;;5.10;0.80;;;;;;;12.45;100.00;98574.97;12206210;19;20006;-83
2023/10/30 03:10:36;;;;;;;5.50;0.60;;;;;;;12.34;100.00;98564.31;12182661;19;20011;-83
2023/10/30 03:14:37;;;;;;;2.70;1.55;;;;;;;12.40;100.00;98563.16;12208169;19;20362;-81
2023/10/30 03:18:40;;;;;;;3.80;0.80;;;;;;;12.38;100.00;98585.56;12204704;19;20018;-82
2023/10/30 03:22:42;;;;;;;8.48;2.20;;;;;;;12.39;100.00;98601.00;12179914;19;20038;-81
2023/10/30 03:26:46;;;;;;;1.50;0.50;;;;;;;12.40;100.00;98612.88;12204929;19;20624;-82
2023/10/30 03:30:49;;;;;;;5.10;0.77;;;;;;;12.35;100.00;98607.41;12203949;19;20543;-82
2023/10/30 03:34:52;;;;;;;5.10;0.60;;;;;;;12.39;100.00;98583.59;12186015;19;20010;-80
2023/10/30 03:38:54;;;;;;;1.27;0.70;;;;;;;12.39;100.00;98600.19;12204948;19;20026;-81
2023/10/30 03:42:56;;;;;;;1.23;0.60;;;;;;;12.42;100.00;98602.34;12182125;19;20485;-82
2023/10/30 03:46:58;;;;;;;3.58;0.77;;;;;;;12.41;100.00;98606.25;12204066;19;19999;-81
2023/10/30 03:51:00;;;;;;;2.67;0.83;;;;;;;12.39;100.00;98601.00;12208689;19;21104;-81
2023/10/30 03:55:04;;;;;;;0.93;0.45;;;;;;;12.39;100.00;98638.84;12184911;19;20021;-81
2023/10/30 03:59:06;;;;;;;3.70;0.85;;;;;;;12.41;100.00;98645.75;12204576;19;20003;-81
2023/10/30 04:03:10;;;;;;;1.43;0.43;;;;;;;12.44;100.00;98636.88;12204263;19;20492;-81
2023/10/30 04:07:18;;;;;;;2.95;0.60;;;;;;;12.45;100.00;98632.16;12183331;19;20251;-82
2023/10/30 04:11:26;;;;;;;2.95;0.60;;;;;;;12.44;100.00;98613.97;12205137;19;20418;-82
2023/10/30 04:15:28;;;;;;;4.20;0.47;;;;;;;12.46;100.00;98626.38;12206060;19;20014;-82
2023/10/30 04:19:31;;;;;;;;;;;;;;;12.44;100.00;98636.06;12184613;19;20033;-82
2023/10/30 04:23:33;;;;;;;4.53;0.70;;;;;;;12.44;100.00;98625.00;12201012;19;19991;-83
2023/10/30 04:27:35;;;;;;;1.95;0.63;;;;;;;12.44;100.00;98617.53;12199171;19;20007;-83
2023/10/30 04:31:38;;;;;;;2.22;0.60;;;;;;;12.44;100.00;98627.78;12173606;19;20023;-81
2023/10/30 04:35:40;;;;;;;2.25;0.38;;;;;;;12.42;100.00;98630.00;12193148;19;20029;-82
2023/10/30 04:39:42;;;;;;;3.10;0.70;;;;;;;12.42;100.00;98614.22;12192519;19;20003;-83
2023/10/30 04:43:44;;;;;;;6.55;1.23;;;;;;;12.44;100.00;98616.72;12177472;19;20016;-82
2023/10/30 04:47:46;;;;;;;2.05;0.57;;;;;;;12.41;100.00;98609.84;12193720;19;20010;-82
2023/10/30 04:51:48;;;;;;;4.97;0.75;;;;;;;12.38;100.00;98609.59;12192723;19;20002;-83
2023/10/30 04:55:51;;;;;;;3.25;0.60;;;;;;;12.36;100.00;98614.56;12179931;19;20010;-82
2023/10/30 04:59:54;;;;;;;5.82;0.68;;;;;;;12.37;100.00;98605.16;12194223;19;20465;-83
2023/10/30 05:03:57;;;;;;;3.20;0.73;;;;;;;12.36;100.00;98600.75;12177399;19;20011;-82
2023/10/30 05:07:59;;;;;;;2.13;0.65;;;;;;;12.35;100.00;98590.84;12198814;19;20006;-82
2023/10/30 05:12:02;;;;;;;4.72;0.77;;;;;;;12.32;100.00;98601.34;12235801;19;20022;-82
2023/10/30 05:16:04;;;;;;;3.63;0.70;;;;;;;12.33;100.00;98599.41;12217087;19;20011;-83
2023/10/30 05:20:07;;;;;;;3.58;0.60;;;;;;;12.19;100.00;98607.53;12243989;19;20042;-82
2023/10/30 05:24:09;;;;;;;4.25;0.60;;;;;;;12.19;100.00;98604.78;12248120;19;20013;-82
2023/10/30 05:28:12;;;;;;;3.20;0.73;;;;;;;12.19;100.00;98595.66;12221850;19;20794;-81
2023/10/30 05:32:20;;;;;;;1.58;0.52;;;;;;;12.20;100.00;98616.66;12245442;19;20003;-80
2023/10/30 05:36:22;;;;;;;1.55;0.50;;;;;;;12.25;100.00;98628.47;12249615;19;20017;-82
2023/10/30 05:40:24;;;;;;;2.38;0.60;;;;;;;12.24;100.00;98665.50;12226337;19;20057;-82
2023/10/30 05:44:29;;;;;;;3.38;1.05;;;;;;;12.24;100.00;98667.44;12215129;19;20011;-82
2023/10/30 05:48:32;;;;;;;2.33;0.38;;;;;;;12.28;100.00;98672.09;12214264;19;20028;-83
2023/10/30 05:52:34;;;;;;;;;;;;;;;12.27;100.00;98695.28;12188130;19;20043;-82
2023/10/30 05:56:35;;;;;;;1.75;0.60;;;;;;;12.32;100.00;98675.94;12206451;19;19927;-81
2023/10/30 06:00:38;;;;;;;3.15;0.90;;;;;;;12.36;100.00;98678.13;12198382;19;20360;-82
2023/10/30 06:04:41;;;;;;;5.88;1.00;;;;;;;12.35;100.00;98676.47;12181171;19;20014;-82
2023/10/30 06:08:43;;;;;;;9.57;0.70;;;;;;;12.37;100.00;98674.22;12202726;19;20003;-82
2023/10/30 06:12:47;;;;;;;4.35;0.55;;;;;;;12.37;100.00;98664.00;12202251;19;20011;-82
2023/10/30 06:16:49;;;;;;;2.70;0.68;;;;;;;12.38;100.00;98653.78;12178877;19;20002;-82
2023/10/30 06:20:53;;;;;;;2.00;0.70;;;;;;;12.42;100.00;98639.09;12200634;19;20018;-84
2023/10/30 06:24:54;;;;;;;1.55;0.60;;;;;;;12.47;100.00;98641.00;12204286;19;20018;-82
2023/10/30 06:28:56;;;;;;;0.75;0.40;;;;;;;12.49;100.00;98658.94;12204476;19;20132;-83
2023/10/30 06:32:58;;;;;;;3.80;0.57;;;;;;;12.53;100.00;98654.47;12202023;19;20015;-81
2023/10/30 06:37:00;;;;;;;2.53;0.40;;;;;;;12.55;100.00;98637.59;12185913;19;20009;-83
2023/10/30 06:41:03;;;;;;;2.10;0.50;;;;;;;12.57;100.00;98635.34;12203366;19;20111;-82
2023/10/30 06:45:06;;;;;;;1.23;0.50;;;;;;;12.60;100.00;98634.78;12198137;19;20002;-81
2023/10/30 06:49:09;;;;;;;1.20;0.50;;;;;;;12.64;100.00;98635.84;12176366;19;20018;-81
2023/10/30 06:53:11;;;;;;;1.50;0.43;;;;;;;12.65;100.00;98662.38;12199009;19;20014;-81
2023/10/30 06:57:13;;;;;;;1.02;0.40;;;;;;;12.65;100.00;98658.78;12200571;19;20351;-82
2023/10/30 07:01:16;;;;;;;2.75;0.50;;;;;;;12.70;100.00;98659.56;12179879;19;20029;-80
2023/10/30 07:05:19;;;;;;;0.52;0.30;;;;;;;12.72;100.00;98649.03;12198126;19;20009;-83
2023/10/30 07:09:21;;;;;;;1.48;0.70;;;;;;;12.77;100.00;98635.16;12198844;19;20022;-82
2023/10/30 07:13:24;;;;;;;2.25;0.60;;;;;;;12.82;100.00;98630.69;12180028;19;20006;-83
2023/10/30 07:17:26;;;;;;;2.70;0.90;;;;;;;12.86;100.00;98615.16;12202916;19;20011;-82
2023/10/30 07:21:29;;;;;;;3.70;0.50;;;;;;;12.92;100.00;98620.34;12199805;19;20014;-82
2023/10/30 07:25:31;;;;;;;2.10;1.13;;;;;;;12.99;100.00;98622.75;12181435;19;20667;-81
2023/10/30 07:29:33;;;;;;;2.72;0.55;;;;;;;13.06;100.00;98619.59;12196784;19;20022;-83
2023/10/30 07:33:34;;;;;;;0.77;0.40;;;;;;;13.09;100.00;98633.69;12197617;19;20010;-83
2023/10/30 07:37:36;;;;;;;2.67;0.80;;;;;;;13.09;100.00;98658.59;12177071;19;20010;-83
2023/10/30 07:47:09;;;;;;;1.60;0.77;;;;;;;13.19;100.00;98677.81;12181062;19;20307;-85
2023/10/30 07:51:14;;;;;;;0.98;0.60;;;;;;;13.27;100.00;98681.09;12205063;19;20021;-83
2023/10/30 07:55:17;;;;;;;;;;;;;;;13.29;100.00;98668.59;12177585;19;20038;-80
2023/10/30 07:59:19;;;;;;;1.73;0.57;;;;;;;13.36;100.00;98665.50;12196789;19;19914;-82
2023/10/30 08:03:21;;;;;;;1.48;0.80;;;;;;;13.42;100.00;98667.06;12188469;19;20021;-81
2023/10/30 08:07:23;;;;;;;3.40;0.77;;;;;;;13.40;100.00;98664.59;12160099;19;20014;-80
2023/10/30 08:11:26;;;;;;;2.53;0.70;;;;;;;13.42;100.00;98697.50;12174098;19;20006;-82
2023/10/30 08:15:29;;;;;;;2.60;1.10;;;;;;;13.50;100.00;98693.25;12208095;19;20007;-84
2023/10/30 08:19:31;;;;;;;1.30;0.60;;;;;;;13.62;100.00;98693.63;12179688;19;20019;-82
2023/10/30 08:23:36;;;;;;;1.08;0.57;;;;;;;13.68;100.00;98682.22;12192797;19;20006;-82
2023/10/30 08:27:39;;;;;;;2.80;0.63;;;;;;;13.75;100.00;98683.78;12195957;19;20011;-82
2023/10/30 08:31:41;;;;;;;3.93;0.70;;;;;;;13.85;100.00;98686.41;12173766;19;21180;-82
2023/10/30 08:35:46;;;;;;;2.53;0.50;;;;;;;13.90;100.00;98695.47;12194714;19;20014;-81
2023/10/30 08:39:48;;;;;;;1.33;0.68;;;;;;;13.89;100.00;98690.22;12196723;19;20022;-82
2023/10/30 08:43:50;;;;;;;;;;;;;;;13.89;100.00;98702.13;12194510;19;19998;-82
2023/10/30 08:47:54;;;;;;;3.88;0.88;;;;;;;13.97;100.00;98697.84;12199617;19;19922;-83
2023/10/30 08:52:12;;;;;;;1.58;0.60;;;;;;;13.98;100.00;98684.81;12178311;19;20017;-82
2023/10/30 08:56:14;;;;;;;1.38;0.60;;;;;;;13.90;100.00;98680.81;12199554;19;20070;-82
2023/10/30 09:00:16;;;;;;;3.10;1.42;;;;;;;13.89;100.00;98666.13;12202247;19;20007;-83
2023/10/30 09:04:18;;;;;;;1.95;0.47;;;;;;;13.94;100.00;98640.28;12177317;19;20035;-81
2023/10/30 09:08:21;;;;;;;2.63;0.70;;;;;;;14.04;100.00;98625.47;12205509;19;20024;-81
2023/10/30 09:12:25;;;;;;;0.95;0.20;;;;;;;14.28;100.00;98617.06;12209214;19;20029;-81
2023/10/30 09:16:29;;;;;;;1.40;0.40;;;;;;;14.43;100.00;98614.00;12188384;19;20007;-82
2023/10/30 09:20:31;;;;;;;0.38;0.38;;;;;;;14.52;100.00;98594.75;12219422;19;21354;-82
2023/10/30 09:24:33;;;;;;;0.83;0.50;;;;;;;14.62;100.00;98593.75;12206401;19;20014;-83
2023/10/30 09:28:35;;;;;;;0.82;0.40;;;;;;;14.78;100.00;98583.97;12190296;19;20062;-83
2023/10/30 09:32:38;;;;;;;0.47;0.30;;;;;;;14.88;100.00;98592.13;12212160;19;20081;-82
2023/10/30 09:36:40;;;;;;;0.65;0.40;;;;;;;14.83;100.00;98595.00;12215570;19;20002;-83
2023/10/30 09:40:44;;;;;;;0.63;0.40;;;;;;;14.77;100.00;98596.22;12191083;19;20009;-82
2023/10/30 09:44:46;;;;;;;8.45;3.63;;;;;;;14.72;100.00;98588.84;12219004;19;20021;-83
2023/10/30 09:48:50;;;;;;;1.13;0.73;;;;;;;14.78;100.00;98578.44;12216321;19;20059;-84
2023/10/30 09:52:53;;;;;;;1.08;0.40;;;;;;;15.00;100.00;98572.19;12193236;19;20014;-84
2023/10/30 09:56:55;;;;;;;0.93;0.57;;;;;;;15.32;100.00;98571.22;12217877;19;20049;-84
2023/10/30 10:00:59;;;;;;;0.85;0.47;;;;;;;15.52;100.00;98569.94;12199746;19;20003;-83
2023/10/30 10:05:01;;;;;;;0.50;0.40;;;;;;;15.69;100.00;98550.69;12208796;19;20025;-81
2023/10/30 10:09:04;;;;;;;4.88;0.40;;;;;;;15.92;100.00;98551.50;12224167;19;19999;-82
2023/10/30 10:13:06;;;;;;;1.33;0.35;;;;;;;15.98;100.00;98548.63;12195292;19;20014;-82
2023/10/30 10:17:08;;;;;;;1.23;0.60;;;;;;;15.86;100.00;98527.78;12218286;19;20013;-80
2023/10/30 10:21:11;;;;;;;1.27;0.40;;;;;;;15.72;100.00;98527.00;12216673;19;20791;-83
2023/10/30 10:25:18;;;;;;;0.47;0.30;;;;;;;15.81;100.00;98508.44;12182557;19;20017;-82
2023/10/30 10:29:23;;;;;;;2.90;0.50;;;;;;;15.90;100.00;98498.22;12212040;19;20007;-83
2023/10/30 10:33:27;;;;;;;0.30;0.30;;;;;;;15.90;100.00;98498.22;12205027;19;20014;-83
2023/10/30 10:37:32;;;;;;;0.98;0.40;;;;;;;15.92;100.00;98509.84;12186615;19;20019;-84
2023/10/30 10:41:37;;;;;;;1.65;0.50;;;;;;;16.02;100.00;98503.19;12212536;19;20018;-83
2023/10/30 10:45:39;;;;;;;3.38;0.60;;;;;;;16.06;100.00;98514.50;12208723;19;20029;-84
2023/10/30 10:49:41;;;;;;;0.75;0.40;;;;;;;16.09;100.00;98508.28;12185767;19;20469;-83
2023/10/30 10:53:45;;;;;;;2.60;0.77;;;;;;;16.13;100.00;98475.97;12205188;19;20017;-83
2023/10/30 10:57:57;;;;;;;3.22;1.10;;;;;;;16.00;100.00;98476.88;12206067;19;20003;-83
2023/10/30 11:01:59;;;;;;;3.25;1.15;;;;;;;15.93;100.00;98472.59;12180485;19;20011;-83
2023/10/30 11:06:02;;;;;;;2.33;1.13;;;;;;;15.81;100.00;98486.22;12199420;19;20006;-82
2023/10/30 11:10:13;;;;;;;3.10;1.08;;;;;;;15.76;100.00;98446.66;12178037;19;20038;-83
2023/10/30 11:14:35;;;;;;;4.30;2.30;;;;;;;15.82;100.00;98437.88;12198971;19;20029;-83
2023/10/30 11:18:38;;;;;;;1.33;0.88;;;;;;;15.94;100.00;98429.78;12200033;19;20007;-82
2023/10/30 11:22:41;;;;;;;3.30;1.45;;;;;;;16.03;100.00;98399.28;12181898;19;20101;-82
2023/10/30 11:26:46;;;;;;;3.08;1.20;;;;;;;16.02;100.00;98385.69;12193902;19;20050;-83
2023/10/30 11:30:49;;;;;;;1.73;0.55;;;;;;;16.05;100.00;98379.50;12184379;19;20014;-81
2023/10/30 11:34:51;;;;;;;0.40;0.30;;;;;;;16.21;100.00;98375.16;12179984;19;20018;-81
2023/10/30 11:38:54;;;;;;;;;;;;;;;16.26;100.00;98357.50;12195918;19;20359;-82
2023/10/30 11:42:58;;;;;;;2.72;1.02;;;;;;;16.32;100.00;98343.13;12169732;19;20536;-82
2023/10/30 11:47:01;;;;;;;1.45;0.60;;;;;;;16.28;100.00;98342.13;12187885;19;20375;-80
2023/10/30 11:51:03;;;;;;;1.02;0.70;;;;;;;16.30;100.00;98339.84;12188868;19;20723;-79
2023/10/30 11:55:05;;;;;;;1.83;0.47;;;;;;;16.32;100.00;98331.19;12168654;19;20007;-80
2023/10/30 11:59:09;;;;;;;1.88;0.90;;;;;;;16.50;100.00;98326.47;12190961;19;20736;-79
2023/10/30 12:03:11;;;;;;;1.55;0.88;;;;;;;16.74;100.00;98310.13;12184241;19;20017;-81
2023/10/30 12:07:16;;;;;;;1.42;0.80;;;;;;;16.89;100.00;98305.25;12169271;19;20039;-81
2023/10/30 12:11:19;;;;;;;1.67;0.68;;;;;;;16.98;100.00;98308.84;12185373;19;20697;-81
2023/10/30 12:15:21;;;;;;;0.70;0.50;;;;;;;17.01;100.00;98308.19;12192062;19;20035;-81
2023/10/30 12:19:23;;;;;;;0.47;0.47;;;;;;;16.94;100.00;98303.13;12169787;19;20003;-79
2023/10/30 12:23:25;;;;;;;1.70;0.60;;;;;;;17.00;100.00;98295.41;12189282;19;20011;-80
2023/10/30 12:27:28;;;;;;;6.80;1.77;;;;;;;16.98;100.00;98297.72;12191499;19;20029;-79
2023/10/30 12:31:30;;;;;;;5.82;2.38;;;;;;;17.00;100.00;98279.53;12169846;19;20592;-81
2023/10/30 12:35:34;;;;;;;5.97;1.75;;;;;;;17.03;100.00;98283.63;12195596;19;20009;-78
2023/10/30 12:39:37;;;;;;;3.25;1.80;;;;;;;17.02;100.00;98277.25;12191814;19;20018;-81
2023/10/30 12:43:39;;;;;;;3.85;1.70;;;;;;;17.05;100.00;98273.81;12170978;19;20006;-81
2023/10/30 12:47:44;;;;;;;7.80;1.80;;;;;;;17.08;100.00;98247.28;12189618;19;20021;-80
2023/10/30 12:51:46;;;;;;;2.97;1.55;;;;;;;17.11;100.00;98254.16;12190208;19;20029;-81
2023/10/30 12:55:49;;;;;;;8.17;1.40;;;;;;;17.08;100.00;98236.16;12171813;19;20010;-81
2023/10/30 12:59:51;;;;;;;;;;;;;;;17.04;100.00;98229.59;12188373;19;20033;-81
2023/10/30 13:03:53;;;;;;;1.13;0.70;;;;;;;17.00;100.00;98218.31;12190395;19;19915;-81
2023/10/30 13:07:55;;;;;;;;;;;;;;;16.97;100.00;98209.81;12164918;19;20019;-81
2023/10/30 13:11:57;;;;;;;1.80;1.00;;;;;;;16.96;100.00;98213.78;12184137;19;20550;-80
2023/10/30 13:16:00;;;;;;;1.95;1.27;;;;;;;16.95;100.00;98195.41;12162420;19;20019;-80
2023/10/30 13:20:06;;;;;;;3.85;1.30;;;;;;;16.87;100.00;98177.63;12197018;19;20549;-82
2023/10/30 13:24:12;;;;;;;1.65;0.65;;;;;;;16.78;100.00;98158.16;12192138;19;20046;-81
2023/10/30 13:28:14;;;;;;;1.50;0.70;;;;;;;16.75;100.00;98130.97;12164617;19;20362;-80
2023/10/30 13:32:16;;;;;;;3.60;1.40;;;;;;;16.76;100.00;98126.25;12186860;19;20270;-82
2023/10/30 13:36:17;;;;;;;3.00;1.35;;;;;;;16.76;100.00;98107.59;12187027;19;20252;-81
2023/10/30 13:40:19;;;;;;;2.73;1.20;;;;;;;16.80;100.00;98103.00;12171181;19;20002;-81
2023/10/30 13:44:21;;;;;;;4.22;1.40;;;;;;;16.84;100.00;98111.53;12188447;19;20011;-81
2023/10/30 13:48:25;;;;;;;1.92;1.30;;;;;;;16.84;100.00;98098.41;12196696;19;20038;-81
2023/10/30 13:52:27;;;;;;;5.45;1.30;;;;;;;16.77;100.00;98072.25;12171577;19;20073;-81
2023/10/30 13:56:30;;;;;;;4.15;1.30;;;;;;;16.78;100.00;98063.59;12205844;19;20086;-82
2023/10/30 14:00:33;;;;;;;3.80;1.70;;;;;;;16.85;100.00;98065.84;12202845;19;20026;-81
2023/10/30 14:04:36;;;;;;;4.57;1.30;;;;;;;16.85;100.00;98063.06;12177695;19;19998;-81
2023/10/30 14:08:40;;;;;;;1.77;1.27;;;;;;;16.88;100.00;98081.06;12203566;19;20011;-80
2023/10/30 14:12:42;;;;;;;2.90;1.17;;;;;;;16.87;100.00;98077.47;12220867;19;20019;-80
2023/10/30 14:16:44;;;;;;;2.53;1.30;;;;;;;16.87;100.00;98088.59;12179592;19;20014;-81
2023/10/30 14:20:48;;;;;;;4.47;2.40;;;;;;;16.85;100.00;98075.00;12204729;19;20346;-80
2023/10/30 14:24:50;;;;;;;2.63;1.50;;;;;;;16.83;100.00;98059.78;12198901;19;20033;-80
2023/10/30 14:28:52;;;;;;;1.92;1.20;;;;;;;16.85;100.00;98063.88;12172181;19;20025;-79
2023/10/30 14:32:54;;;;;;;2.60;1.27;;;;;;;16.90;100.00;98051.75;12202603;19;20014;-79
2023/10/30 14:36:57;;;;;;;3.28;1.30;;;;;;;16.93;100.00;98059.44;12181231;19;20017;-79
2023/10/30 14:40:59;;;;;;;1.30;1.00;;;;;;;16.94;100.00;98074.16;12201781;19;20011;-80
2023/10/30 14:45:03;;;;;;;3.17;1.20;;;;;;;16.84;100.00;98078.13;12198843;19;21411;-81
2023/10/30 14:49:04;;;;;;;6.47;1.73;;;;;;;16.73;100.00;98066.53;12172138;19;20094;-80
2023/10/30 14:53:06;;;;;;;2.53;1.27;;;;;;;16.64;100.00;98060.97;12195975;19;20029;-79
2023/10/30 14:57:10;;;;;;;3.17;1.45;;;;;;;16.57;100.00;98049.56;12202763;19;20029;-79
2023/10/30 15:01:16;;;;;;;3.50;1.70;;;;;;;16.52;100.00;98041.41;12184167;19;20485;-79
2023/10/30 15:05:18;;;;;;;5.73;2.23;;;;;;;16.42;100.00;98072.34;12198673;19;20420;-79
2023/10/30 15:09:22;;;;;;;6.22;1.88;;;;;;;16.36;100.00;98066.16;12199465;19;20473;-79
2023/10/30 15:13:24;;;;;;;8.38;2.25;;;;;;;16.27;100.00;98065.34;12176876;19;20386;-79
2023/10/30 15:17:25;;;;;;;7.22;1.77;;;;;;;16.19;100.00;98046.72;12216981;19;20014;-80
2023/10/30 15:21:30;;;;;;;3.95;2.00;;;;;;;16.12;100.00;98063.91;12242746;19;20003;-80
2023/10/30 15:25:31;;;;;;;7.00;1.80;;;;;;;16.03;100.00;98065.03;12218095;19;20007;-80
2023/10/30 15:29:34;;;;;;;2.53;1.45;;;;;;;15.92;100.00;98067.34;12212801;19;20006;-80
2023/10/30 15:33:36;;;;;;;3.90;1.90;;;;;;;15.85;100.00;98062.25;12209326;19;20018;-80
2023/10/30 15:37:39;;;;;;;6.57;2.35;;;;;;;15.78;100.00;98056.41;12180350;19;20288;-80
2023/10/30 15:41:41;;;;;;;23.20;11.50;;;;;;;15.69;100.00;98039.72;12203114;19;20007;-79
2023/10/30 15:45:46;;;;;;;15.88;5.63;;;;;;;15.57;100.00;98030.41;12204855;19;20010;-80
2023/10/30 15:49:49;;;;;;;10.00;3.05;;;;;;;15.45;100.00;98025.50;12184577;19;20017;-79
2023/10/30 15:53:50;;;;;;;4.95;2.30;;;;;;;15.32;100.00;98035.63;12203228;19;20037;-79
2023/10/30 15:58:13;;;;;;;3.95;2.05;;;;;;;15.24;100.00;98026.13;12173925;19;20069;-80
2023/10/30 16:02:18;;;;;;;5.80;2.50;;;;;;;15.19;100.00;98025.44;12205283;19;20007;-80
2023/10/30 16:06:24;;;;;;;4.63;2.75;;;;;;;15.14;100.00;98029.22;12195008;19;20037;-79
2023/10/30 16:10:26;;;;;;;8.30;2.90;;;;;;;15.07;100.00;98017.75;12178309;19;20029;-79
2023/10/30 16:14:30;;;;;;;6.63;3.30;;;;;;;14.99;100.00;98022.16;12192549;19;20681;-79
2023/10/30 16:18:34;;;;;;;7.20;3.38;;;;;;;14.96;100.00;98008.09;12196931;19;20630;-80
2023/10/30 16:22:38;;;;;;;5.63;2.90;;;;;;;14.90;100.00;98021.31;12168997;19;20002;-80
2023/10/30 16:26:41;;;;;;;5.90;2.80;;;;;;;14.86;100.00;98011.19;12191047;19;20466;-80
2023/10/30 16:30:43;;;;;;;8.18;3.03;;;;;;;14.81;100.00;98003.81;12185866;19;20015;-79
2023/10/30 16:34:45;;;;;;;5.18;2.40;;;;;;;14.82;100.00;98000.75;12165624;19;20528;-79
2023/10/30 16:38:47;;;;;;;6.13;2.80;;;;;;;14.78;100.00;97965.66;12193253;19;20527;-80
2023/10/30 16:42:50;;;;;;;8.07;2.75;;;;;;;14.71;100.00;97970.84;12195221;19;20018;-80
2023/10/30 16:46:53;;;;;;;5.90;2.55;;;;;;;14.66;100.00;97971.00;12173259;19;20024;-79
2023/10/30 16:50:55;;;;;;;5.35;2.50;;;;;;;14.65;100.00;97966.59;12194996;19;20033;-80
2023/10/30 16:54:58;;;;;;;5.97;2.70;;;;;;;14.65;100.00;97975.72;12169770;19;20018;-80
2023/10/30 16:59:02;;;;;;;10.13;3.38;;;;;;;14.61;100.00;97985.03;12196936;19;20078;-79
2023/10/30 17:03:03;;;;;;;5.00;2.67;;;;;;;14.59;100.00;97975.06;12196082;19;20460;-80
2023/10/30 17:07:07;;;;;;;13.57;5.93;;;;;;;14.63;100.00;97972.44;12175911;19;20029;-80
2023/10/30 17:11:11;;;;;;;19.38;8.15;;;;;;;14.62;100.00;97967.25;12197449;19;20023;-81
2023/10/30 17:15:15;;;;;;;12.38;5.75;;;;;;;14.56;100.00;97972.94;12195303;19;20011;-80
2023/10/30 17:19:17;;;;;;;8.98;3.60;;;;;;;14.57;100.00;97973.75;12172582;19;20457;-80
2023/10/30 17:23:19;;;;;;;8.95;3.25;;;;;;;14.53;100.00;97997.69;12196169;19;20479;-80
2023/10/30 17:27:23;;;;;;;5.85;3.20;;;;;;;14.51;100.00;98006.31;12200284;19;20537;-82
2023/10/30 17:31:25;;;;;;;9.35;3.17;;;;;;;14.48;100.00;98008.88;12183062;19;20499;-81
2023/10/30 17:35:31;;;;;;;6.40;3.88;;;;;;;14.48;100.00;98017.22;12204817;19;20010;-81
2023/10/30 17:39:33;;;;;;;7.00;2.78;;;;;;;14.49;100.00;98030.75;12209096;19;20003;-84
2023/10/30 17:43:35;;;;;;;7.22;2.55;;;;;;;14.49;100.00;98036.31;12185860;19;20006;-83
2023/10/30 17:47:37;;;;;;;6.70;2.80;;;;;;;14.49;100.00;98036.31;12203520;19;20015;-83
2023/10/30 17:51:39;;;;;;;7.43;2.72;;;;;;;14.48;100.00;98037.41;12204781;19;20010;-83
2023/10/30 17:55:41;;;;;;;5.18;2.53;;;;;;;14.49;100.00;98036.31;12182903;19;20033;-83
2023/10/30 17:59:43;;;;;;;;;;;;;;;14.45;100.00;98043.59;12207266;19;20448;-83
2023/10/30 18:03:47;;;;;;;7.05;2.60;;;;;;;14.46;100.00;98039.72;12207962;19;19910;-83
2023/10/30 18:07:49;;;;;;;3.93;2.10;;;;;;;14.45;100.00;98040.00;12181469;19;20022;-83
2023/10/30 18:11:51;;;;;;;6.05;2.25;;;;;;;14.43;100.00;98037.56;12206909;19;20586;-82
2023/10/30 18:15:53;;;;;;;9.95;4.07;;;;;;;14.40;100.00;98037.41;12205181;19;20006;-83
2023/10/30 18:19:55;;;;;;;15.30;5.28;;;;;;;14.38;100.00;98037.72;12183586;19;20006;-83
2023/10/30 18:23:57;;;;;;;7.60;3.70;;;;;;;14.36;100.00;98035.25;12203643;19;20006;-82
2023/10/30 18:27:59;;;;;;;8.63;3.38;;;;;;;14.39;100.00;98036.56;12180901;19;20014;-83
2023/10/30 18:32:01;;;;;;;5.82;2.55;;;;;;;14.36;100.00;98038.00;12198401;19;20014;-82
2023/10/30 18:41:16;;;;;;;4.78;2.30;;;;;;;14.36;100.00;98020.56;12184424;19;20006;-84
2023/10/30 18:45:19;;;;;;;6.50;3.75;;;;;;;14.38;100.00;98018.31;12205813;19;20014;-83
2023/10/30 18:49:21;;;;;;;9.60;3.40;;;;;;;14.38;100.00;98012.75;12178985;19;21591;-84